sensor_id;sensor_type;location;lat;lon;timestamp;P1;durP1;ratioP1;P2;durP2;ratioP2
20988;SDS011;10653;47.052;15.410;2023-07-31T00:01:25;4.70;;;2.43;;
20988;SDS011;10653;47.052;15.410;2023-07-31T00:03:51;4.30;;;2.50;;
20988;SDS011;10653;47.052;15.410;2023-07-31T00:06:17;2.60;;;2.40;;
20988;SDS011;10653;47.052;15.410;2023-07-31T00:08:43;3.07;;;2.20;;
20988;SDS011;10653;47.052;15.410;2023-07-31T00:11:09;3.23;;;2.20;;
20988;SDS011;10653;47.052;15.410;2023-07-31T00:13:35;3.70;;;2.73;;
20988;SDS011;10653;47.052;15.410;2023-07-31T00:16:01;2.93;;;2.60;;
20988;SDS011;10653;47.052;15.410;2023-07-31T00:18:27;3.10;;;2.10;;
20988;SDS011;10653;47.052;15.410;2023-07-31T00:20:53;2.30;;;2.10;;
20988;SDS011;10653;47.052;15.410;2023-07-31T00:23:19;2.30;;;2.10;;
20988;SDS011;10653;47.052;15.410;2023-07-31T00:25:45;3.93;;;2.70;;
20988;SDS011;10653;47.052;15.410;2023-07-31T00:28:11;2.20;;;2.00;;
20988;SDS011;10653;47.052;15.410;2023-07-31T00:30:37;2.77;;;2.57;;
20988;SDS011;10653;47.052;15.410;2023-07-31T00:33:03;4.10;;;2.43;;
20988;SDS011;10653;47.052;15.410;2023-07-31T00:35:29;2.43;;;2.23;;
20988;SDS011;10653;47.052;15.410;2023-07-31T00:37:56;2.80;;;2.27;;
20988;SDS011;10653;47.052;15.410;2023-07-31T00:40:22;2.47;;;2.27;;
20988;SDS011;10653;47.052;15.410;2023-07-31T00:42:48;2.77;;;2.40;;
20988;SDS011;10653;47.052;15.410;2023-07-31T00:45:14;2.17;;;1.97;;
20988;SDS011;10653;47.052;15.410;2023-07-31T00:47:40;3.13;;;2.93;;
20988;SDS011;10653;47.052;15.410;2023-07-31T00:50:06;4.10;;;3.27;;
20988;SDS011;10653;47.052;15.410;2023-07-31T00:52:32;2.70;;;2.50;;
20988;SDS011;10653;47.052;15.410;2023-07-31T00:54:59;3.60;;;2.63;;
20988;SDS011;10653;47.052;15.410;2023-07-31T00:57:25;2.13;;;1.93;;
20988;SDS011;10653;47.052;15.410;2023-07-31T00:59:51;4.10;;;3.00;;
20988;SDS011;10653;47.052;15.410;2023-07-31T01:02:17;3.53;;;2.77;;
20988;SDS011;10653;47.052;15.410;2023-07-31T01:04:43;2.70;;;2.50;;
20988;SDS011;10653;47.052;15.410;2023-07-31T01:10:00;2.60;;;2.40;;
20988;SDS011;10653;47.052;15.410;2023-07-31T01:12:29;2.53;;;2.33;;
20988;SDS011;10653;47.052;15.410;2023-07-31T01:15:05;3.60;;;2.40;;
20988;SDS011;10653;47.052;15.410;2023-07-31T01:17:34;3.23;;;2.93;;
20988;SDS011;10653;47.052;15.410;2023-07-31T01:20:01;5.87;;;2.80;;
20988;SDS011;10653;47.052;15.410;2023-07-31T01:27:28;3.30;;;2.57;;
20988;SDS011;10653;47.052;15.410;2023-07-31T01:29:56;5.87;;;5.40;;
20988;SDS011;10653;47.052;15.410;2023-07-31T01:32:25;5.37;;;4.87;;
20988;SDS011;10653;47.052;15.410;2023-07-31T01:34:52;3.97;;;2.60;;
20988;SDS011;10653;47.052;15.410;2023-07-31T01:37:18;4.40;;;2.93;;
20988;SDS011;10653;47.052;15.410;2023-07-31T01:39:44;3.53;;;3.00;;
20988;SDS011;10653;47.052;15.410;2023-07-31T01:42:10;6.23;;;3.10;;
20988;SDS011;10653;47.052;15.410;2023-07-31T01:44:36;2.77;;;2.47;;
20988;SDS011;10653;47.052;15.410;2023-07-31T01:47:02;3.07;;;2.77;;
20988;SDS011;10653;47.052;15.410;2023-07-31T01:49:28;3.43;;;2.77;;
20988;SDS011;10653;47.052;15.410;2023-07-31T01:51:54;2.97;;;2.27;;
20988;SDS011;10653;47.052;15.410;2023-07-31T01:54:20;3.77;;;2.90;;
20988;SDS011;10653;47.052;15.410;2023-07-31T01:56:46;2.57;;;2.37;;
20988;SDS011;10653;47.052;15.410;2023-07-31T01:59:12;2.97;;;2.67;;
20988;SDS011;10653;47.052;15.410;2023-07-31T02:01:38;2.47;;;2.27;;
20988;SDS011;10653;47.052;15.410;2023-07-31T02:04:04;2.90;;;1.90;;
20988;SDS011;10653;47.052;15.410;2023-07-31T02:06:30;2.63;;;2.43;;
20988;SDS011;10653;47.052;15.410;2023-07-31T02:08:56;2.50;;;2.30;;
20988;SDS011;10653;47.052;15.410;2023-07-31T02:11:22;4.00;;;2.23;;
20988;SDS011;10653;47.052;15.410;2023-07-31T02:13:48;2.90;;;2.10;;
20988;SDS011;10653;47.052;15.410;2023-07-31T02:16:14;3.00;;;2.43;;
20988;SDS011;10653;47.052;15.410;2023-07-31T02:18:40;4.87;;;2.17;;
20988;SDS011;10653;47.052;15.410;2023-07-31T02:21:06;2.57;;;2.17;;
20988;SDS011;10653;47.052;15.410;2023-07-31T02:23:32;3.03;;;2.13;;
20988;SDS011;10653;47.052;15.410;2023-07-31T02:25:58;2.70;;;2.30;;
20988;SDS011;10653;47.052;15.410;2023-07-31T02:28:24;4.17;;;2.83;;
20988;SDS011;10653;47.052;15.410;2023-07-31T02:30:50;5.23;;;2.30;;
20988;SDS011;10653;47.052;15.410;2023-07-31T02:33:17;2.90;;;2.33;;
20988;SDS011;10653;47.052;15.410;2023-07-31T02:35:43;3.10;;;2.33;;
20988;SDS011;10653;47.052;15.410;2023-07-31T02:38:09;2.60;;;2.37;;
20988;SDS011;10653;47.052;15.410;2023-07-31T02:40:35;7.97;;;5.77;;
20988;SDS011;10653;47.052;15.410;2023-07-31T02:43:01;4.50;;;2.40;;
20988;SDS011;10653;47.052;15.410;2023-07-31T02:45:27;2.83;;;2.30;;
20988;SDS011;10653;47.052;15.410;2023-07-31T02:47:53;3.80;;;2.60;;
20988;SDS011;10653;47.052;15.410;2023-07-31T02:50:19;3.07;;;2.13;;
20988;SDS011;10653;47.052;15.410;2023-07-31T02:52:45;3.13;;;2.57;;
20988;SDS011;10653;47.052;15.410;2023-07-31T02:55:11;4.07;;;3.03;;
20988;SDS011;10653;47.052;15.410;2023-07-31T02:57:37;5.43;;;2.90;;
20988;SDS011;10653;47.052;15.410;2023-07-31T03:00:03;3.00;;;2.47;;
20988;SDS011;10653;47.052;15.410;2023-07-31T03:02:31;3.67;;;2.57;;
20988;SDS011;10653;47.052;15.410;2023-07-31T03:04:57;3.07;;;2.63;;
20988;SDS011;10653;47.052;15.410;2023-07-31T03:07:23;3.70;;;2.33;;
20988;SDS011;10653;47.052;15.410;2023-07-31T03:09:49;5.87;;;2.60;;
20988;SDS011;10653;47.052;15.410;2023-07-31T03:12:15;5.70;;;2.80;;
20988;SDS011;10653;47.052;15.410;2023-07-31T03:14:41;4.43;;;2.80;;
20988;SDS011;10653;47.052;15.410;2023-07-31T03:17:07;6.90;;;2.43;;
20988;SDS011;10653;47.052;15.410;2023-07-31T03:19:33;3.00;;;2.70;;
20988;SDS011;10653;47.052;15.410;2023-07-31T03:21:59;3.00;;;2.70;;
20988;SDS011;10653;47.052;15.410;2023-07-31T03:24:25;3.10;;;2.60;;
20988;SDS011;10653;47.052;15.410;2023-07-31T03:26:51;3.80;;;2.30;;
20988;SDS011;10653;47.052;15.410;2023-07-31T03:29:17;2.80;;;2.40;;
20988;SDS011;10653;47.052;15.410;2023-07-31T03:31:43;3.33;;;2.77;;
20988;SDS011;10653;47.052;15.410;2023-07-31T03:34:09;3.03;;;2.57;;
20988;SDS011;10653;47.052;15.410;2023-07-31T03:36:35;3.23;;;2.50;;
20988;SDS011;10653;47.052;15.410;2023-07-31T03:39:01;6.27;;;2.40;;
20988;SDS011;10653;47.052;15.410;2023-07-31T03:41:28;3.90;;;2.43;;
20988;SDS011;10653;47.052;15.410;2023-07-31T03:43:54;2.30;;;2.00;;
20988;SDS011;10653;47.052;15.410;2023-07-31T03:46:23;2.90;;;2.07;;
20988;SDS011;10653;47.052;15.410;2023-07-31T03:48:49;3.07;;;2.33;;
20988;SDS011;10653;47.052;15.410;2023-07-31T03:51:16;2.63;;;2.43;;
20988;SDS011;10653;47.052;15.410;2023-07-31T03:53:42;4.30;;;3.10;;
20988;SDS011;10653;47.052;15.410;2023-07-31T03:56:09;3.40;;;2.57;;
20988;SDS011;10653;47.052;15.410;2023-07-31T03:58:35;3.53;;;3.20;;
20988;SDS011;10653;47.052;15.410;2023-07-31T04:01:01;3.97;;;2.90;;
20988;SDS011;10653;47.052;15.410;2023-07-31T04:03:27;3.00;;;2.70;;
20988;SDS011;10653;47.052;15.410;2023-07-31T04:05:54;4.60;;;2.77;;
20988;SDS011;10653;47.052;15.410;2023-07-31T04:08:23;6.50;;;2.90;;
20988;SDS011;10653;47.052;15.410;2023-07-31T04:10:49;3.50;;;3.20;;
20988;SDS011;10653;47.052;15.410;2023-07-31T04:13:16;3.20;;;2.87;;
20988;SDS011;10653;47.052;15.410;2023-07-31T04:15:41;4.50;;;3.30;;
20988;SDS011;10653;47.052;15.410;2023-07-31T04:18:08;2.90;;;2.53;;
20988;SDS011;10653;47.052;15.410;2023-07-31T04:20:34;2.33;;;2.13;;
20988;SDS011;10653;47.052;15.410;2023-07-31T04:23:00;3.00;;;2.70;;
20988;SDS011;10653;47.052;15.410;2023-07-31T04:25:25;3.60;;;2.77;;
20988;SDS011;10653;47.052;15.410;2023-07-31T04:27:52;3.73;;;3.27;;
20988;SDS011;10653;47.052;15.410;2023-07-31T04:30:17;3.57;;;3.27;;
20988;SDS011;10653;47.052;15.410;2023-07-31T04:32:44;4.27;;;3.00;;
20988;SDS011;10653;47.052;15.410;2023-07-31T04:35:10;5.07;;;3.97;;
20988;SDS011;10653;47.052;15.410;2023-07-31T04:37:36;3.87;;;3.57;;
20988;SDS011;10653;47.052;15.410;2023-07-31T04:40:03;5.83;;;3.73;;
20988;SDS011;10653;47.052;15.410;2023-07-31T04:42:29;4.40;;;3.53;;
20988;SDS011;10653;47.052;15.410;2023-07-31T04:44:55;3.00;;;2.70;;
20988;SDS011;10653;47.052;15.410;2023-07-31T04:47:21;5.60;;;3.63;;
20988;SDS011;10653;47.052;15.410;2023-07-31T04:49:47;4.50;;;3.00;;
20988;SDS011;10653;47.052;15.410;2023-07-31T04:52:13;3.83;;;2.93;;
20988;SDS011;10653;47.052;15.410;2023-07-31T04:54:39;5.10;;;3.23;;
20988;SDS011;10653;47.052;15.410;2023-07-31T04:57:05;4.73;;;2.90;;
20988;SDS011;10653;47.052;15.410;2023-07-31T04:59:31;3.70;;;3.30;;
20988;SDS011;10653;47.052;15.410;2023-07-31T05:01:57;5.57;;;4.40;;
20988;SDS011;10653;47.052;15.410;2023-07-31T05:04:23;9.87;;;7.73;;
20988;SDS011;10653;47.052;15.410;2023-07-31T05:06:49;6.80;;;5.23;;
20988;SDS011;10653;47.052;15.410;2023-07-31T05:09:15;6.13;;;5.17;;
20988;SDS011;10653;47.052;15.410;2023-07-31T05:11:41;6.23;;;5.63;;
20988;SDS011;10653;47.052;15.410;2023-07-31T05:14:08;9.30;;;5.97;;
20988;SDS011;10653;47.052;15.410;2023-07-31T05:16:34;5.93;;;5.43;;
20988;SDS011;10653;47.052;15.410;2023-07-31T05:19:00;6.07;;;5.50;;
20988;SDS011;10653;47.052;15.410;2023-07-31T05:21:26;8.37;;;5.90;;
20988;SDS011;10653;47.052;15.410;2023-07-31T05:23:52;9.60;;;6.70;;
20988;SDS011;10653;47.052;15.410;2023-07-31T05:26:18;7.70;;;6.57;;
20988;SDS011;10653;47.052;15.410;2023-07-31T05:28:44;7.90;;;7.10;;
20988;SDS011;10653;47.052;15.410;2023-07-31T05:31:10;8.67;;;7.60;;
20988;SDS011;10653;47.052;15.410;2023-07-31T05:33:36;7.93;;;6.10;;
20988;SDS011;10653;47.052;15.410;2023-07-31T05:36:02;7.50;;;6.53;;
20988;SDS011;10653;47.052;15.410;2023-07-31T05:38:28;6.33;;;5.73;;
20988;SDS011;10653;47.052;15.410;2023-07-31T05:40:55;8.87;;;5.20;;
20988;SDS011;10653;47.052;15.410;2023-07-31T05:43:21;9.20;;;7.20;;
20988;SDS011;10653;47.052;15.410;2023-07-31T05:45:47;7.03;;;5.00;;
20988;SDS011;10653;47.052;15.410;2023-07-31T05:48:13;5.60;;;4.77;;
20988;SDS011;10653;47.052;15.410;2023-07-31T05:50:40;7.13;;;5.13;;
20988;SDS011;10653;47.052;15.410;2023-07-31T05:53:06;7.50;;;6.80;;
20988;SDS011;10653;47.052;15.410;2023-07-31T05:55:33;7.73;;;6.33;;
20988;SDS011;10653;47.052;15.410;2023-07-31T05:57:59;8.37;;;7.57;;
20988;SDS011;10653;47.052;15.410;2023-07-31T06:00:25;7.57;;;6.80;;
20988;SDS011;10653;47.052;15.410;2023-07-31T06:02:51;8.80;;;6.00;;
20988;SDS011;10653;47.052;15.410;2023-07-31T06:05:17;7.17;;;6.50;;
20988;SDS011;10653;47.052;15.410;2023-07-31T06:07:43;10.27;;;7.20;;
20988;SDS011;10653;47.052;15.410;2023-07-31T06:10:09;8.53;;;5.50;;
20988;SDS011;10653;47.052;15.410;2023-07-31T06:12:35;7.33;;;5.83;;
20988;SDS011;10653;47.052;15.410;2023-07-31T06:15:02;7.30;;;4.47;;
20988;SDS011;10653;47.052;15.410;2023-07-31T06:17:28;6.23;;;5.60;;
20988;SDS011;10653;47.052;15.410;2023-07-31T06:19:54;8.90;;;5.60;;
20988;SDS011;10653;47.052;15.410;2023-07-31T06:22:20;6.70;;;6.00;;
20988;SDS011;10653;47.052;15.410;2023-07-31T06:24:46;9.10;;;5.93;;
20988;SDS011;10653;47.052;15.410;2023-07-31T06:27:12;7.37;;;5.70;;
20988;SDS011;10653;47.052;15.410;2023-07-31T06:29:38;8.03;;;6.27;;
20988;SDS011;10653;47.052;15.410;2023-07-31T06:32:04;9.07;;;6.17;;
20988;SDS011;10653;47.052;15.410;2023-07-31T06:34:30;6.90;;;5.07;;
20988;SDS011;10653;47.052;15.410;2023-07-31T06:36:56;6.30;;;4.47;;
20988;SDS011;10653;47.052;15.410;2023-07-31T06:39:22;7.60;;;4.57;;
20988;SDS011;10653;47.052;15.410;2023-07-31T06:41:48;4.23;;;3.83;;
20988;SDS011;10653;47.052;15.410;2023-07-31T06:44:15;5.90;;;3.77;;
20988;SDS011;10653;47.052;15.410;2023-07-31T06:46:42;4.87;;;4.20;;
20988;SDS011;10653;47.052;15.410;2023-07-31T06:49:08;5.27;;;4.53;;
20988;SDS011;10653;47.052;15.410;2023-07-31T06:51:34;6.77;;;5.03;;
20988;SDS011;10653;47.052;15.410;2023-07-31T06:54:01;5.70;;;5.20;;
20988;SDS011;10653;47.052;15.410;2023-07-31T06:56:27;8.00;;;6.77;;
20988;SDS011;10653;47.052;15.410;2023-07-31T06:58:53;13.47;;;8.03;;
20988;SDS011;10653;47.052;15.410;2023-07-31T07:01:19;8.50;;;6.83;;
20988;SDS011;10653;47.052;15.410;2023-07-31T07:03:45;9.90;;;7.57;;
20988;SDS011;10653;47.052;15.410;2023-07-31T07:06:11;6.93;;;6.23;;
20988;SDS011;10653;47.052;15.410;2023-07-31T07:08:37;9.23;;;6.87;;
20988;SDS011;10653;47.052;15.410;2023-07-31T07:11:03;6.90;;;6.20;;
20988;SDS011;10653;47.052;15.410;2023-07-31T07:13:29;6.30;;;4.90;;
20988;SDS011;10653;47.052;15.410;2023-07-31T07:15:55;7.50;;;5.50;;
20988;SDS011;10653;47.052;15.410;2023-07-31T07:18:21;5.07;;;4.40;;
20988;SDS011;10653;47.052;15.410;2023-07-31T07:20:49;5.40;;;3.97;;
20988;SDS011;10653;47.052;15.410;2023-07-31T07:23:15;7.87;;;5.13;;
20988;SDS011;10653;47.052;15.410;2023-07-31T07:25:42;7.50;;;4.87;;
20988;SDS011;10653;47.052;15.410;2023-07-31T07:28:08;7.70;;;5.40;;
20988;SDS011;10653;47.052;15.410;2023-07-31T07:30:34;8.40;;;4.70;;
20988;SDS011;10653;47.052;15.410;2023-07-31T07:33:00;8.90;;;5.80;;
20988;SDS011;10653;47.052;15.410;2023-07-31T07:35:26;5.80;;;5.00;;
20988;SDS011;10653;47.052;15.410;2023-07-31T07:37:52;5.60;;;4.37;;
20988;SDS011;10653;47.052;15.410;2023-07-31T07:40:18;6.30;;;4.80;;
20988;SDS011;10653;47.052;15.410;2023-07-31T07:42:44;3.57;;;2.90;;
20988;SDS011;10653;47.052;15.410;2023-07-31T07:45:11;4.00;;;3.17;;
20988;SDS011;10653;47.052;15.410;2023-07-31T07:47:37;3.50;;;3.10;;
20988;SDS011;10653;47.052;15.410;2023-07-31T07:50:04;8.50;;;3.13;;
20988;SDS011;10653;47.052;15.410;2023-07-31T07:52:30;3.23;;;2.90;;
20988;SDS011;10653;47.052;15.410;2023-07-31T07:54:56;6.00;;;2.80;;
20988;SDS011;10653;47.052;15.410;2023-07-31T07:57:22;3.17;;;2.63;;
20988;SDS011;10653;47.052;15.410;2023-07-31T07:59:48;2.43;;;2.23;;
20988;SDS011;10653;47.052;15.410;2023-07-31T08:02:14;3.20;;;2.90;;
20988;SDS011;10653;47.052;15.410;2023-07-31T08:04:40;3.57;;;2.30;;
20988;SDS011;10653;47.052;15.410;2023-07-31T08:07:06;2.47;;;2.27;;
20988;SDS011;10653;47.052;15.410;2023-07-31T08:09:32;4.27;;;2.93;;
20988;SDS011;10653;47.052;15.410;2023-07-31T08:11:58;3.30;;;2.77;;
20988;SDS011;10653;47.052;15.410;2023-07-31T08:14:27;4.83;;;3.10;;
20988;SDS011;10653;47.052;15.410;2023-07-31T08:16:53;3.87;;;2.67;;
20988;SDS011;10653;47.052;15.410;2023-07-31T08:19:19;3.33;;;2.70;;
20988;SDS011;10653;47.052;15.410;2023-07-31T08:21:45;2.53;;;2.30;;
20988;SDS011;10653;47.052;15.410;2023-07-31T08:24:11;7.97;;;2.90;;
20988;SDS011;10653;47.052;15.410;2023-07-31T08:26:38;3.50;;;2.30;;
20988;SDS011;10653;47.052;15.410;2023-07-31T08:29:04;2.23;;;2.03;;
20988;SDS011;10653;47.052;15.410;2023-07-31T08:31:30;2.33;;;2.10;;
20988;SDS011;10653;47.052;15.410;2023-07-31T08:33:56;3.80;;;2.13;;
20988;SDS011;10653;47.052;15.410;2023-07-31T08:36:22;5.47;;;2.07;;
20988;SDS011;10653;47.052;15.410;2023-07-31T08:38:48;2.53;;;2.33;;
20988;SDS011;10653;47.052;15.410;2023-07-31T08:41:15;3.93;;;2.20;;
20988;SDS011;10653;47.052;15.410;2023-07-31T08:43:44;3.30;;;2.33;;
20988;SDS011;10653;47.052;15.410;2023-07-31T08:46:10;3.03;;;2.73;;
20988;SDS011;10653;47.052;15.410;2023-07-31T08:48:36;3.37;;;2.67;;
20988;SDS011;10653;47.052;15.410;2023-07-31T08:51:05;2.90;;;2.30;;
20988;SDS011;10653;47.052;15.410;2023-07-31T08:53:32;3.60;;;2.10;;
20988;SDS011;10653;47.052;15.410;2023-07-31T08:55:58;2.23;;;2.03;;
20988;SDS011;10653;47.052;15.410;2023-07-31T08:58:24;2.57;;;2.23;;
20988;SDS011;10653;47.052;15.410;2023-07-31T09:00:51;3.70;;;2.40;;
20988;SDS011;10653;47.052;15.410;2023-07-31T09:03:18;3.27;;;2.40;;
20988;SDS011;10653;47.052;15.410;2023-07-31T09:05:44;2.80;;;2.50;;
20988;SDS011;10653;47.052;15.410;2023-07-31T09:08:11;3.87;;;2.73;;
20988;SDS011;10653;47.052;15.410;2023-07-31T09:10:42;4.57;;;2.40;;
20988;SDS011;10653;47.052;15.410;2023-07-31T09:13:08;2.30;;;2.10;;
20988;SDS011;10653;47.052;15.410;2023-07-31T09:15:35;3.47;;;2.93;;
20988;SDS011;10653;47.052;15.410;2023-07-31T09:18:02;4.63;;;2.63;;
20988;SDS011;10653;47.052;15.410;2023-07-31T09:20:28;3.50;;;2.37;;
20988;SDS011;10653;47.052;15.410;2023-07-31T09:22:54;4.20;;;2.80;;
20988;SDS011;10653;47.052;15.410;2023-07-31T09:25:27;2.93;;;2.63;;
20988;SDS011;10653;47.052;15.410;2023-07-31T09:27:57;2.53;;;2.33;;
20988;SDS011;10653;47.052;15.410;2023-07-31T09:30:23;2.03;;;1.80;;
20988;SDS011;10653;47.052;15.410;2023-07-31T09:32:50;3.50;;;2.40;;
20988;SDS011;10653;47.052;15.410;2023-07-31T09:37:52;3.70;;;2.43;;
20988;SDS011;10653;47.052;15.410;2023-07-31T09:42:57;4.37;;;2.50;;
20988;SDS011;10653;47.052;15.410;2023-07-31T09:45:24;3.30;;;2.57;;
20988;SDS011;10653;47.052;15.410;2023-07-31T09:47:50;3.13;;;2.20;;
20988;SDS011;10653;47.052;15.410;2023-07-31T09:50:16;5.40;;;2.77;;
20988;SDS011;10653;47.052;15.410;2023-07-31T09:52:42;2.90;;;2.60;;
20988;SDS011;10653;47.052;15.410;2023-07-31T09:55:09;2.40;;;2.20;;
20988;SDS011;10653;47.052;15.410;2023-07-31T09:57:41;2.43;;;2.10;;
20988;SDS011;10653;47.052;15.410;2023-07-31T10:00:08;2.80;;;2.60;;
20988;SDS011;10653;47.052;15.410;2023-07-31T10:02:34;3.40;;;2.43;;
20988;SDS011;10653;47.052;15.410;2023-07-31T10:05:02;3.20;;;2.50;;
20988;SDS011;10653;47.052;15.410;2023-07-31T10:07:29;3.10;;;2.70;;
20988;SDS011;10653;47.052;15.410;2023-07-31T10:09:57;3.67;;;3.13;;
20988;SDS011;10653;47.052;15.410;2023-07-31T10:12:25;2.67;;;2.30;;
20988;SDS011;10653;47.052;15.410;2023-07-31T10:14:54;4.80;;;2.60;;
20988;SDS011;10653;47.052;15.410;2023-07-31T10:17:21;4.57;;;2.50;;
20988;SDS011;10653;47.052;15.410;2023-07-31T10:19:47;5.90;;;3.30;;
20988;SDS011;10653;47.052;15.410;2023-07-31T10:22:14;4.47;;;2.67;;
20988;SDS011;10653;47.052;15.410;2023-07-31T10:24:40;3.57;;;2.57;;
20988;SDS011;10653;47.052;15.410;2023-07-31T10:27:08;3.37;;;3.07;;
20988;SDS011;10653;47.052;15.410;2023-07-31T10:29:36;3.70;;;2.70;;
20988;SDS011;10653;47.052;15.410;2023-07-31T10:32:02;2.50;;;2.30;;
20988;SDS011;10653;47.052;15.410;2023-07-31T10:34:32;3.67;;;2.90;;
20988;SDS011;10653;47.052;15.410;2023-07-31T10:39:43;4.20;;;3.10;;
20988;SDS011;10653;47.052;15.410;2023-07-31T10:42:10;3.27;;;2.70;;
20988;SDS011;10653;47.052;15.410;2023-07-31T10:44:36;3.03;;;2.53;;
20988;SDS011;10653;47.052;15.410;2023-07-31T10:47:02;2.87;;;2.57;;
20988;SDS011;10653;47.052;15.410;2023-07-31T10:49:28;5.43;;;2.77;;
20988;SDS011;10653;47.052;15.410;2023-07-31T10:51:56;5.33;;;2.90;;
20988;SDS011;10653;47.052;15.410;2023-07-31T10:54:23;3.00;;;2.70;;
20988;SDS011;10653;47.052;15.410;2023-07-31T10:56:52;2.50;;;2.30;;
20988;SDS011;10653;47.052;15.410;2023-07-31T10:59:18;3.20;;;2.90;;
20988;SDS011;10653;47.052;15.410;2023-07-31T11:01:51;5.07;;;2.70;;
20988;SDS011;10653;47.052;15.410;2023-07-31T11:04:24;2.83;;;1.90;;
20988;SDS011;10653;47.052;15.410;2023-07-31T11:07:00;3.20;;;2.90;;
20988;SDS011;10653;47.052;15.410;2023-07-31T11:09:28;3.77;;;2.77;;
20988;SDS011;10653;47.052;15.410;2023-07-31T11:11:55;6.60;;;3.07;;
20988;SDS011;10653;47.052;15.410;2023-07-31T11:14:21;6.57;;;2.83;;
20988;SDS011;10653;47.052;15.410;2023-07-31T11:16:50;4.80;;;2.97;;
20988;SDS011;10653;47.052;15.410;2023-07-31T11:19:23;3.30;;;3.00;;
20988;SDS011;10653;47.052;15.410;2023-07-31T11:21:49;3.43;;;2.60;;
20988;SDS011;10653;47.052;15.410;2023-07-31T11:24:15;4.30;;;3.03;;
20988;SDS011;10653;47.052;15.410;2023-07-31T11:26:48;5.23;;;2.53;;
20988;SDS011;10653;47.052;15.410;2023-07-31T11:29:14;2.83;;;2.53;;
20988;SDS011;10653;47.052;15.410;2023-07-31T11:31:43;4.63;;;3.57;;
20988;SDS011;10653;47.052;15.410;2023-07-31T11:34:09;3.40;;;2.80;;
20988;SDS011;10653;47.052;15.410;2023-07-31T11:36:35;3.77;;;2.50;;
20988;SDS011;10653;47.052;15.410;2023-07-31T11:39:08;3.70;;;3.00;;
20988;SDS011;10653;47.052;15.410;2023-07-31T11:41:34;2.97;;;2.60;;
20988;SDS011;10653;47.052;15.410;2023-07-31T11:44:00;3.13;;;2.80;;
20988;SDS011;10653;47.052;15.410;2023-07-31T11:46:27;4.30;;;3.10;;
20988;SDS011;10653;47.052;15.410;2023-07-31T11:48:55;3.00;;;2.70;;
20988;SDS011;10653;47.052;15.410;2023-07-31T11:51:24;2.67;;;2.47;;
20988;SDS011;10653;47.052;15.410;2023-07-31T11:53:51;3.47;;;2.73;;
20988;SDS011;10653;47.052;15.410;2023-07-31T11:56:18;2.60;;;2.20;;
20988;SDS011;10653;47.052;15.410;2023-07-31T11:58:48;4.30;;;3.77;;
20988;SDS011;10653;47.052;15.410;2023-07-31T12:01:15;5.73;;;2.90;;
20988;SDS011;10653;47.052;15.410;2023-07-31T12:03:44;3.50;;;3.00;;
20988;SDS011;10653;47.052;15.410;2023-07-31T12:06:11;2.60;;;2.40;;
20988;SDS011;10653;47.052;15.410;2023-07-31T12:08:37;3.20;;;2.83;;
20988;SDS011;10653;47.052;15.410;2023-07-31T12:11:04;4.70;;;2.90;;
20988;SDS011;10653;47.052;15.410;2023-07-31T12:13:30;3.40;;;3.10;;
20988;SDS011;10653;47.052;15.410;2023-07-31T12:15:57;3.40;;;2.67;;
20988;SDS011;10653;47.052;15.410;2023-07-31T12:18:24;3.27;;;2.73;;
20988;SDS011;10653;47.052;15.410;2023-07-31T12:20:54;2.70;;;2.50;;
20988;SDS011;10653;47.052;15.410;2023-07-31T12:23:25;3.10;;;2.80;;
20988;SDS011;10653;47.052;15.410;2023-07-31T12:26:05;3.87;;;2.90;;
20988;SDS011;10653;47.052;15.410;2023-07-31T12:31:10;3.60;;;3.23;;
20988;SDS011;10653;47.052;15.410;2023-07-31T12:33:37;3.20;;;2.70;;
20988;SDS011;10653;47.052;15.410;2023-07-31T12:36:04;3.40;;;3.00;;
20988;SDS011;10653;47.052;15.410;2023-07-31T12:38:32;4.13;;;3.00;;
20988;SDS011;10653;47.052;15.410;2023-07-31T12:40:58;3.87;;;2.87;;
20988;SDS011;10653;47.052;15.410;2023-07-31T12:43:24;3.20;;;2.90;;
20988;SDS011;10653;47.052;15.410;2023-07-31T12:45:51;6.70;;;3.20;;
20988;SDS011;10653;47.052;15.410;2023-07-31T12:48:17;3.60;;;3.30;;
20988;SDS011;10653;47.052;15.410;2023-07-31T12:50:43;3.63;;;2.83;;
20988;SDS011;10653;47.052;15.410;2023-07-31T12:53:09;3.10;;;2.80;;
20988;SDS011;10653;47.052;15.410;2023-07-31T12:55:35;4.13;;;3.07;;
20988;SDS011;10653;47.052;15.410;2023-07-31T12:58:01;3.57;;;3.27;;
20988;SDS011;10653;47.052;15.410;2023-07-31T13:00:28;3.60;;;2.70;;
20988;SDS011;10653;47.052;15.410;2023-07-31T13:02:54;3.30;;;3.00;;
20988;SDS011;10653;47.052;15.410;2023-07-31T13:05:20;4.00;;;2.60;;
20988;SDS011;10653;47.052;15.410;2023-07-31T13:07:46;3.93;;;2.70;;
20988;SDS011;10653;47.052;15.410;2023-07-31T13:10:12;2.50;;;2.30;;
20988;SDS011;10653;47.052;15.410;2023-07-31T13:12:38;4.20;;;2.50;;
20988;SDS011;10653;47.052;15.410;2023-07-31T13:15:05;4.90;;;2.50;;
20988;SDS011;10653;47.052;15.410;2023-07-31T13:17:31;2.97;;;2.67;;
20988;SDS011;10653;47.052;15.410;2023-07-31T13:19:57;5.40;;;3.00;;
20988;SDS011;10653;47.052;15.410;2023-07-31T13:22:23;3.83;;;3.00;;
20988;SDS011;10653;47.052;15.410;2023-07-31T13:24:49;3.70;;;3.30;;
20988;SDS011;10653;47.052;15.410;2023-07-31T13:27:15;3.27;;;2.73;;
20988;SDS011;10653;47.052;15.410;2023-07-31T13:29:44;3.20;;;2.90;;
20988;SDS011;10653;47.052;15.410;2023-07-31T13:32:10;3.80;;;3.00;;
20988;SDS011;10653;47.052;15.410;2023-07-31T13:34:36;4.10;;;2.90;;
20988;SDS011;10653;47.052;15.410;2023-07-31T13:37:02;3.90;;;2.93;;
20988;SDS011;10653;47.052;15.410;2023-07-31T13:39:28;3.60;;;2.70;;
20988;SDS011;10653;47.052;15.410;2023-07-31T13:41:54;3.13;;;2.83;;
20988;SDS011;10653;47.052;15.410;2023-07-31T13:44:20;3.23;;;2.33;;
20988;SDS011;10653;47.052;15.410;2023-07-31T13:46:46;3.57;;;2.93;;
20988;SDS011;10653;47.052;15.410;2023-07-31T13:49:12;3.00;;;2.50;;
20988;SDS011;10653;47.052;15.410;2023-07-31T13:51:38;3.27;;;2.23;;
20988;SDS011;10653;47.052;15.410;2023-07-31T13:54:04;3.83;;;3.40;;
20988;SDS011;10653;47.052;15.410;2023-07-31T13:56:31;3.27;;;2.90;;
20988;SDS011;10653;47.052;15.410;2023-07-31T13:58:57;2.87;;;2.67;;
20988;SDS011;10653;47.052;15.410;2023-07-31T14:01:25;3.63;;;3.17;;
20988;SDS011;10653;47.052;15.410;2023-07-31T14:03:51;4.97;;;2.90;;
20988;SDS011;10653;47.052;15.410;2023-07-31T14:06:17;2.90;;;2.57;;
20988;SDS011;10653;47.052;15.410;2023-07-31T14:08:43;2.83;;;2.53;;
20988;SDS011;10653;47.052;15.410;2023-07-31T14:11:09;3.40;;;2.93;;
20988;SDS011;10653;47.052;15.410;2023-07-31T14:13:35;3.57;;;2.90;;
20988;SDS011;10653;47.052;15.410;2023-07-31T14:16:01;3.93;;;2.83;;
20988;SDS011;10653;47.052;15.410;2023-07-31T14:18:27;3.40;;;2.57;;
20988;SDS011;10653;47.052;15.410;2023-07-31T14:20:53;3.80;;;2.60;;
20988;SDS011;10653;47.052;15.410;2023-07-31T14:23:19;6.20;;;3.37;;
20988;SDS011;10653;47.052;15.410;2023-07-31T14:25:45;2.93;;;2.63;;
20988;SDS011;10653;47.052;15.410;2023-07-31T14:28:11;3.50;;;2.53;;
20988;SDS011;10653;47.052;15.410;2023-07-31T14:30:37;2.80;;;2.37;;
20988;SDS011;10653;47.052;15.410;2023-07-31T14:33:03;3.17;;;2.40;;
20988;SDS011;10653;47.052;15.410;2023-07-31T14:35:29;2.67;;;2.20;;
20988;SDS011;10653;47.052;15.410;2023-07-31T14:37:55;3.17;;;2.83;;
20988;SDS011;10653;47.052;15.410;2023-07-31T14:40:21;3.67;;;3.03;;
20988;SDS011;10653;47.052;15.410;2023-07-31T14:42:47;3.40;;;2.80;;
20988;SDS011;10653;47.052;15.410;2023-07-31T14:45:14;3.33;;;3.03;;
20988;SDS011;10653;47.052;15.410;2023-07-31T14:47:40;4.50;;;3.53;;